Northwest Florida Beaches International Airport

KECP · Florida, Verenigde Staten

METAR historie KECP · Northwest Florida Beaches International Airport

Hieronder zie je METAR's van de afgelopen dagen. Kies een jaar om door oudere METAR's te bladeren, vanaf het jaar 2007.

22 juni 2024

Tijd Code Weer Temp. Zicht Plafond Wind METAR/SPECI
00:53
V
23 °C 10 mi - 360° 360° 0 kt METAR KECP 220553Z AUTO 00000KT 10SM CLR 23/22 A3007 RMK AO1 SLP191 T02330217 10294 20233 403440222 58003

21 juni 2024

Tijd Code Weer Temp. Zicht Plafond Wind METAR/SPECI
23:53
V
23 °C 10 mi - 310° 310° 3 kt METAR KECP 220453Z AUTO 31003KT 10SM CLR 23/22 A3008 RMK AO1 SLP197 T02330217
22:53
V
24 °C 10 mi - 360° 360° 0 kt METAR KECP 220353Z AUTO 00000KT 10SM CLR 24/22 A3009 RMK AO1 SLP199 T02390217
21:53
V
24 °C 10 mi - 360° 360° 0 kt METAR KECP 220253Z AUTO 00000KT 10SM CLR 24/22 A3007 RMK AO1 SLP194 T02390222 53011
20:53
V
27 °C 10 mi - 360° 360° 0 kt METAR KECP 220153Z 00000KT 10SM CLR 27/22 A3005 RMK AO1 SLP187 T02670222
19:53
V
27 °C 10 mi - 190° 190° 5 kt METAR KECP 220053Z 19005KT 10SM CLR 27/22 A3005 RMK AO1 SLP186 T02720222
18:53
V
29 °C 10 mi - 200° 200° 8 kt METAR KECP 212353Z 20008KT 10SM CLR 29/22 A3004 RMK AO1 SLP183 T02940217 10344 20294 55003
17:53
V
31 °C 10 mi - 200° 200° 7 kt METAR KECP 212253Z 20007KT 10SM CLR 31/22 A3004 RMK AO1 SLP183 T03110222
17:36
V
31 °C 10 mi - 200° 200° 12 kt METAR KECP 212236Z 20012KT 10SM CLR 31/22 A3004 RMK AO1 T03110217
16:53
V
34 °C 10 mi - 010° 010° 8 kt METAR KECP 212153Z 01008KT 10SM CLR 34/18 A3005 RMK AO1 SLP185 T03440178
15:53
V
34 °C 10 mi - 030° 030° 9 kt METAR KECP 212053Z 03009KT 10SM CLR 34/17 A3005 RMK AO1 SLP186 T03390172 58019
14:53
V
34 °C 10 mi - 330° 330° 7 - 17 kt METAR KECP 211953Z 33007G17KT 10SM CLR 34/18 A3007 RMK AO1 SLP193 T03390178
13:53
V
33 °C 10 mi - 050° 050° 8 - 19 kt METAR KECP 211853Z 05008G19KT 10SM CLR 33/17 A3009 RMK AO1 SLP200 T03330172
12:53
V
33 °C 10 mi - 050° 050° 11 kt METAR KECP 211753Z 05011KT 10SM CLR 33/17 A3011 RMK AO1 SLP205 T03280172 10328 20239 56012
11:53
V
32 °C 10 mi - 020° 020° 11 - 22 kt METAR KECP 211653Z 02011G22KT 10SM CLR 32/18 A3012 RMK AO1 SLP209 T03220178
10:53
V
31 °C 10 mi - 030° 030° 16 - 23 kt METAR KECP 211553Z 03016G23KT 10SM CLR 31/18 A3012 RMK AO1 SLP211 T03060178
09:53
V
29 °C 10 mi - 040° 040° 9 kt METAR KECP 211453Z 04009KT 10SM CLR 29/19 A3014 RMK AO1 SLP216 T02940194 58008
08:53
V
28 °C 10 mi - 030° 030° 9 kt METAR KECP 211353Z 03009KT 10SM CLR 28/19 A3015 RMK AO1 SLP221 T02780194
07:53
V
26 °C 10 mi - 040° 040° 8 kt METAR KECP 211253Z 04008KT 10SM CLR 26/21 A3015 RMK AO1 SLP221 T02610206 $
06:53
V
24 °C 10 mi - 360° 360° 5 kt METAR KECP 211153Z 36005KT 10SM CLR 24/20 A3016 RMK AO1 SLP224 6//// 7//// T02390200 10256 20222 51013 $
05:53
V
22 °C 10 mi - 040° 040° 4 kt METAR KECP 211053Z 04004KT 10SM CLR 22/19 A3016 RMK AO1 SLP223 T02220194
04:53
V
23 °C 10 mi - 050° 050° 4 kt METAR KECP 210953Z AUTO 05004KT 10SM CLR 23/20 A3014 RMK AO1 SLP217 T02280200 $
03:53
V
23 °C 10 mi - 040° 040° 4 kt METAR KECP 210853Z AUTO 04004KT 10SM CLR 23/20 A3012 RMK AO1 SLP211 T02280200 55004 $
02:53
V
24 °C 10 mi - 050° 050° 6 kt METAR KECP 210753Z AUTO 05006KT 10SM CLR 24/19 A3012 RMK AO1 SLP209 T02390194 $
01:53
V
24 °C 10 mi - 050° 050° 4 kt METAR KECP 210653Z AUTO 05004KT 10SM CLR 24/19 A3013 RMK AO1 SLP214 T02390194 $
00:53
V
26 °C 10 mi - 050° 050° 5 kt METAR KECP 210553Z AUTO 05005KT 10SM CLR 26/19 A3014 RMK AO1 SLP216 60000 T02560194 10306 20244 403220228 50000 $

20 juni 2024

Tijd Code Weer Temp. Zicht Plafond Wind METAR/SPECI
23:53
V
25 °C 10 mi - 030° 030° 6 kt METAR KECP 210453Z AUTO 03006KT 10SM CLR 25/21 A3014 RMK AO1 SLP216 T02500211 $
22:53
V
26 °C 10 mi - 010° 010° 4 kt METAR KECP 210353Z AUTO 01004KT 10SM FEW065 26/22 A3014 RMK AO1 SLP216 T02610217 $
21:53
V
26 °C 10 mi - 360° 360° 0 kt METAR KECP 210253Z AUTO 00000KT 10SM FEW065 26/24 A3014 RMK AO1 SLP216 60000 T02560239 53013 $
20:53
V
27 °C 10 mi - 350° 350° 3 kt METAR KECP 210153Z 35003KT 10SM CLR 27/23 A3012 RMK AO1 SLP210 T02720233 $
20:08
V
27 °C 10 mi - 340° 340° 5 kt METAR KECP 210108Z 34005KT 10SM FEW005 SCT075 27/24 A3011 RMK AO1 T02720239 $
19:53
V
27 °C 10 mi - 340° 340° 5 kt METAR KECP 210053Z 34005KT 10SM FEW060 27/25 A3011 RMK AO1 RAB13E32 SLP205 P0000 T02720250 $
18:53
V
31 °C 10 mi 6.500 ft 330° 330° 4 kt METAR KECP 202353Z COR 33004KT 10SM FEW050 BKN065 31/24 A3010 RMK AO1 SLP202 60001 T03060244 10322 20283 55004 $
18:44
V
30 °C 10 mi - 320° 320° 3 kt METAR KECP 202344Z 32003KT 10SM FEW002 SCT050 SCT060 30/24 A3010 RMK AO1 T03000244 $
17:53
V
29 °C 10 mi 7.500 ft 360° 360° 0 kt METAR KECP 202253Z 00000KT 10SM SCT050 BKN075 OVC100 29/24 A3010 RMK AO1 RAB30E43 SLP202 P0000 T02890239 $
16:53
V
32 °C 10 mi 5.500 ft 020° 020° 9 kt METAR KECP 202153Z 02009KT 10SM BKN055 32/23 A3010 RMK AO1 SLP204 T03170228 $
15:53
V
32 °C 10 mi 5.500 ft 020° 020° 9 kt METAR KECP 202053Z 02009KT 10SM BKN055 32/24 A3011 RMK AO1 SLP206 60001 T03220244 $
15:15
V
31 °C 10 mi 4.300 ft 020° 020° 11 - 23 kt METAR KECP 202015Z 02011G23KT 10SM BKN043 BKN055 BKN080 31/24 A3012 RMK AO1 WSHFT 1954 LTG DSNT W T03060239 $
14:55
V
31 °C 10 mi 4.400 ft 070° 070° 10 - 17 kt METAR KECP 201955Z 07010G17KT 10SM BKN044 BKN055 OVC090 31/23 A3012 RMK AO1 T03060233 $
13:53
V
29 °C 7 mi 4.900 ft 090° 090° 6 kt METAR KECP 201853Z 09006KT 7SM -RA SCT038 BKN049 29/24 A3013 RMK AO1 RAB43 SLP214 P0001 T02940239
12:53
V
32 °C 10 mi 7.000 ft 080° 080° 6 kt METAR KECP 201753Z 08006KT 10SM SCT038 BKN070 32/23 A3014 RMK AO1 SLP217 60000 T03170228 10322 20244 58007
11:55
M
31 °C 10 mi 2.800 ft 070° 070° 10 kt METAR KECP 201655Z 07010KT 10SM BKN028 OVC050 31/23 A3016 RMK AO1 T03060228
10:53
M
30 °C 10 mi 2.200 ft 080° 080° 12 - 21 kt METAR KECP 201553Z 08012G21KT 10SM BKN022 BKN048 30/23 A3015 RMK AO1 RAB1457E07 SLP221 P0000 T03000228
09:53
M
28 °C 10 mi 2.100 ft 070° 070° 9 - 19 kt METAR KECP 201453Z 07009G19KT 10SM BKN021 BKN046 28/23 A3016 RMK AO1 RAB23E41 SLP224 P0000 60000 T02830228 53012
09:09
M
28 °C 10 mi 1.900 ft 090° 090° 11 - 17 kt METAR KECP 201409Z 09011G17KT 10SM BKN019 BKN046 28/22 A3015 RMK AO1 T02780222
08:53
M
27 °C 10 mi 1.700 ft 060° 060° 9 - 18 kt METAR KECP 201353Z 06009G18KT 10SM BKN017 27/22 A3015 RMK AO1 RAB36E46 SLP219 P0000 T02720222
08:26
M
27 °C 10 mi 1.700 ft 060° 060° 10 - 19 kt METAR KECP 201326Z 06010G19KT 10SM BKN017 27/22 A3015 RMK AO1 T02720217
07:53
V
26 °C 10 mi - 050° 050° 12 - 19 kt METAR KECP 201253Z 05012G19KT 10SM CLR 26/21 A3013 RMK AO1 SLP214 T02610211
06:53
V
24 °C 10 mi - 020° 020° 8 kt METAR KECP 201153Z 02008KT 10SM CLR 24/21 A3013 RMK AO1 SLP212 T02390206 10250 20228 53008
05:53
V
23 °C 10 mi - 020° 020° 6 kt METAR KECP 201053Z 02006KT 10SM CLR 23/20 A3011 RMK AO1 SLP206 T02280200
04:53
V
23 °C 10 mi - 030° 030° 7 kt METAR KECP 200953Z AUTO 03007KT 10SM CLR 23/20 A3010 RMK AO1 SLP204 T02330200
03:53
V
23 °C 10 mi - 020° 020° 7 kt METAR KECP 200853Z AUTO 02007KT 10SM CLR 23/19 A3010 RMK AO1 SLP204 T02330194 55004
02:53
V
24 °C 10 mi - 030° 030° 7 kt METAR KECP 200753Z AUTO 03007KT 10SM CLR 24/19 A3009 RMK AO1 SLP200 T02390194
01:53
V
24 °C 10 mi - 030° 030° 4 kt METAR KECP 200653Z AUTO 03004KT 10SM CLR 24/19 A3011 RMK AO1 SLP205 T02390194
00:53
V
25 °C 10 mi - 060° 060° 4 kt METAR KECP 200553Z AUTO 06004KT 10SM CLR 25/19 A3012 RMK AO1 SLP209 T02500189 10294 20250 403220250 51006
Wijziging doorgeven